createdAt,value
2022-09-16T00:02:40.221Z,2.3
2022-09-16T00:12:39.108Z,2.3
2022-09-16T00:52:39.248Z,2.1
2022-09-16T01:02:39.195Z,2.2
2022-09-16T01:12:39.238Z,2.1
2022-09-16T01:22:39.235Z,2
2022-09-16T01:32:39.286Z,2
2022-09-16T02:12:39.334Z,1.8
2022-09-16T02:22:39.324Z,1.7
2022-09-16T02:42:39.387Z,1.5
2022-09-16T02:52:39.380Z,1.6
2022-09-16T03:02:39.506Z,1.4
2022-09-16T03:22:39.480Z,1.5
2022-09-16T03:32:39.466Z,1.4
2022-09-16T03:42:39.519Z,1.4
2022-09-16T03:52:39.508Z,1.3
2022-09-16T04:12:39.573Z,1.1
2022-09-16T05:12:39.784Z,0.9
2022-09-16T05:22:39.675Z,1
2022-09-16T05:42:39.840Z,1
2022-09-16T05:52:39.741Z,1.1
2022-09-16T06:02:39.939Z,1.2
2022-09-16T06:12:39.798Z,1.2
2022-09-16T06:22:39.916Z,1.4
2022-09-16T06:32:39.813Z,1.7
2022-09-16T06:42:39.966Z,2
2022-09-16T06:52:39.865Z,2.2
2022-09-16T07:02:40.031Z,2.3
2022-09-16T07:12:39.928Z,2.5
2022-09-16T07:22:40.052Z,2.5
2022-09-16T07:32:39.958Z,2.5
2022-09-16T07:52:40.168Z,2.5
2022-09-16T08:02:40.043Z,2.7
2022-09-16T08:12:40.137Z,3
2022-09-16T08:22:40.025Z,3.4
2022-09-16T08:32:40.156Z,4.2
2022-09-16T08:42:40.066Z,4.2
2022-09-16T08:52:40.204Z,4.1
2022-09-16T09:12:41.559Z,3.6
2022-09-16T09:22:40.117Z,3.6
2022-09-16T09:42:40.358Z,3.9
2022-09-16T09:52:40.193Z,4.7
2022-09-16T10:02:40.327Z,5.4
2022-09-16T10:12:40.213Z,5.8
2022-09-16T10:22:40.364Z,5.7
2022-09-16T10:32:40.255Z,5.7
2022-09-16T10:42:40.414Z,5.6
2022-09-16T10:52:40.260Z,5.9
2022-09-16T11:02:40.436Z,6
2022-09-16T11:12:40.328Z,6.3
2022-09-16T11:22:40.464Z,7
2022-09-16T11:42:40.538Z,7.2
2022-09-16T11:52:40.380Z,7.6
2022-09-16T12:02:40.682Z,7.7
2022-09-16T12:12:40.414Z,7.5
2022-09-16T12:22:40.571Z,6.9
2022-09-16T12:42:44.529Z,6.9
2022-09-16T12:52:40.545Z,6.1
2022-09-16T13:02:40.802Z,5.4
2022-09-16T13:12:44.002Z,5.2
2022-09-16T13:22:40.639Z,3.8
2022-09-16T14:02:40.830Z,1.2
2022-09-16T14:12:40.615Z,1.1
2022-09-16T14:22:40.755Z,1.3
2022-09-16T14:32:40.673Z,1.4
2022-09-16T14:42:40.796Z,1.8
2022-09-16T14:52:40.699Z,1.9
2022-09-16T15:02:40.932Z,2.3
2022-09-16T15:22:40.870Z,2.7
2022-09-16T15:52:40.919Z,2.8
2022-09-16T16:02:40.900Z,3.5
2022-09-16T16:12:40.964Z,3.5
2022-09-16T16:22:40.989Z,3.5
2022-09-16T16:32:40.988Z,3.3
2022-09-16T16:42:40.883Z,3.2
2022-09-16T16:52:41.063Z,3
2022-09-16T17:02:40.963Z,3
2022-09-16T17:12:41.087Z,3
2022-09-16T17:22:40.957Z,2.9
2022-09-16T17:32:41.110Z,2.7
2022-09-16T17:42:41.014Z,2.5
2022-09-16T17:52:41.136Z,2.3
2022-09-16T18:02:41.136Z,2.3
2022-09-16T18:12:41.205Z,2.2
2022-09-16T18:22:41.079Z,2.2
2022-09-16T18:32:41.251Z,2.1
2022-09-16T18:42:41.141Z,2
2022-09-16T18:52:41.270Z,1.8
2022-09-16T19:02:41.227Z,1.7
2022-09-16T19:12:41.325Z,1.6
2022-09-16T19:22:41.222Z,1.6
2022-09-16T19:32:41.388Z,1.5
2022-09-16T19:42:41.245Z,1.5
2022-09-16T19:52:41.384Z,1.4
2022-09-16T20:02:41.328Z,1.3
2022-09-16T20:12:41.423Z,1.3
2022-09-16T20:22:41.339Z,1.3
2022-09-16T20:32:41.461Z,1.3
2022-09-16T20:42:41.377Z,1.3
2022-09-16T20:52:41.489Z,1.3
2022-09-16T21:02:41.465Z,1.2
2022-09-16T21:12:41.556Z,1.2
2022-09-16T21:32:41.599Z,1.3
2022-09-16T21:42:41.477Z,1.3
2022-09-16T21:52:41.645Z,1.2
2022-09-16T22:02:41.648Z,1.2
2022-09-16T22:12:41.720Z,1.3
2022-09-16T22:22:41.558Z,1.2
2022-09-16T22:42:41.756Z,1.2
2022-09-16T22:52:41.664Z,1.3
2022-09-16T23:12:41.781Z,1.2
2022-09-16T23:22:41.689Z,1.3
2022-09-16T23:32:41.857Z,1.4
2022-09-16T23:42:41.744Z,1.4
2022-09-16T23:52:41.878Z,1.4
